Time;durP1;ratioP1;P1;durP2;ratioP2;P2;SDS_P1;SDS_P2;PMS_P1;PMS_P2;Temp;Humidity;BMP_temperature;BMP_pressure;BME280_temperature;BME280_humidity;BME280_pressure;Samples;Min_cycle;Max_cycle;Signal;HPM_P1;HPM_P2
2023/07/15 00:00:50;;;;;;;3.85;1.70;;;;;;;18.30;43.64;100630.34;4972318;28;20113;-66
2023/07/15 00:03:18;;;;;;;3.97;2.10;;;;;;;18.24;43.82;100625.50;4987322;28;20108;-69
2023/07/15 00:05:45;;;;;;;4.30;1.85;;;;;;;18.26;43.36;100629.72;4984095;28;20053;-68
2023/07/15 00:08:10;;;;;;;3.92;2.00;;;;;;;18.45;43.27;100625.66;4975668;28;20581;-68
2023/07/15 00:10:44;;;;;;;3.97;2.10;;;;;;;18.19;43.42;100633.78;4985363;28;20065;-68
2023/07/15 00:13:14;;;;;;;4.60;2.88;;;;;;;18.36;43.06;100619.25;4991715;28;20587;-68
2023/07/15 00:15:43;;;;;;;4.72;2.60;;;;;;;18.38;42.63;100617.34;4985586;28;20139;-68
2023/07/15 00:18:14;;;;;;;6.00;2.03;;;;;;;18.22;43.25;100614.19;4988412;28;20126;-67
2023/07/15 00:20:47;;;;;;;6.55;2.35;;;;;;;18.18;42.92;100615.34;4972397;28;20041;-68
2023/07/15 00:23:19;;;;;;;4.90;2.30;;;;;;;18.21;42.93;100616.00;4986863;28;20069;-68
2023/07/15 00:25:45;;;;;;;5.38;2.25;;;;;;;18.13;43.31;100602.50;4988172;28;20037;-68
2023/07/15 00:28:10;;;;;;;3.75;2.08;;;;;;;18.11;43.37;100603.56;4984136;28;20154;-68
2023/07/15 00:30:37;;;;;;;8.05;2.63;;;;;;;18.15;43.23;100599.72;4975865;28;20416;-69
2023/07/15 00:33:03;;;;;;;4.40;2.30;;;;;;;18.05;42.92;100595.16;4990508;28;20488;-68
2023/07/15 00:35:29;;;;;;;5.07;2.03;;;;;;;18.00;43.28;100586.72;4955944;28;20038;-71
2023/07/15 00:38:00;;;;;;;3.17;1.85;;;;;;;18.08;42.87;100582.66;4990004;28;20034;-69
2023/07/15 00:40:28;;;;;;;4.30;2.00;;;;;;;18.00;42.89;100575.28;4983904;28;20033;-68
2023/07/15 00:43:33;;;;;;;5.97;1.83;;;;;;;18.05;42.67;100578.41;4984156;28;20062;-70
2023/07/15 00:46:18;;;;;;;8.13;1.88;;;;;;;17.87;43.17;100559.50;4971743;28;20403;-69
2023/07/15 00:49:21;;;;;;;5.18;1.73;;;;;;;18.02;42.53;100570.72;4987731;28;20041;-70
2023/07/15 00:52:02;;;;;;;4.35;2.22;;;;;;;17.80;42.87;100568.88;4987114;28;20034;-70
2023/07/15 00:54:42;;;;;;;5.63;1.77;;;;;;;17.80;42.98;100553.84;4987402;28;20199;-70
2023/07/15 00:57:09;;;;;;;4.93;2.10;;;;;;;17.87;42.93;100556.88;4991528;28;20037;-70
2023/07/15 00:59:38;;;;;;;4.53;2.10;;;;;;;17.92;42.40;100546.81;4983883;28;20084;-70
2023/07/15 01:02:07;;;;;;;4.40;2.80;;;;;;;17.72;42.87;100539.56;4982221;28;20520;-70
2023/07/15 01:04:34;;;;;;;5.57;2.78;;;;;;;17.80;42.61;100532.69;4984310;28;20038;-70
2023/07/15 01:07:00;;;;;;;3.80;1.95;;;;;;;17.77;42.60;100532.94;4968712;28;20626;-70
2023/07/15 01:09:26;;;;;;;3.92;2.25;;;;;;;17.80;42.41;100531.88;5001068;28;20323;-70
2023/07/15 01:11:52;;;;;;;4.25;2.35;;;;;;;17.72;42.68;100524.53;4986278;28;20248;-70
2023/07/15 01:14:17;;;;;;;4.80;1.83;;;;;;;17.99;42.23;100526.88;4986013;28;20124;-66
2023/07/15 01:16:47;;;;;;;6.07;2.75;;;;;;;17.67;42.68;100523.19;4987646;28;20034;-67
2023/07/15 01:19:18;;;;;;;9.95;2.30;;;;;;;17.76;42.62;100525.13;4999207;28;20481;-67
2023/07/15 01:21:48;;;;;;;4.78;1.90;;;;;;;17.82;42.02;100516.72;4988990;28;20381;-67
2023/07/15 01:24:14;;;;;;;5.35;2.20;;;;;;;17.89;41.74;100517.94;4973022;28;20515;-68
2023/07/15 01:26:41;;;;;;;7.05;1.90;;;;;;;17.54;42.46;100521.47;4974047;28;20033;-67
2023/07/15 01:29:07;;;;;;;3.45;1.80;;;;;;;17.79;41.80;100514.34;4986266;28;20074;-68
2023/07/15 01:31:34;;;;;;;3.90;2.03;;;;;;;17.47;42.76;100520.22;4980098;28;21401;-67
2023/07/15 01:34:02;;;;;;;2.33;1.70;;;;;;;17.68;42.20;100516.97;4987102;28;20054;-67
2023/07/15 01:36:28;;;;;;;6.18;2.15;;;;;;;17.84;41.92;100507.72;5002536;28;20025;-67
2023/07/15 01:38:56;;;;;;;3.95;1.92;;;;;;;17.69;41.78;100503.59;4981349;28;20038;-66
2023/07/15 01:41:22;;;;;;;3.80;1.90;;;;;;;17.75;41.74;100489.94;4986882;28;20033;-67
2023/07/15 01:43:50;;;;;;;2.65;1.55;;;;;;;17.76;41.75;100488.97;4971577;28;20592;-69
2023/07/15 01:46:15;;;;;;;3.72;1.88;;;;;;;17.75;41.41;100486.44;5000131;28;20037;-70
2023/07/15 01:48:41;;;;;;;3.90;2.08;;;;;;;17.78;41.71;100475.63;4987168;28;20052;-69
2023/07/15 01:51:12;;;;;;;3.83;1.25;;;;;;;17.51;41.75;100468.84;4984167;28;20417;-69
2023/07/15 01:53:39;;;;;;;3.17;1.67;;;;;;;17.62;41.88;100474.16;4983101;28;20049;-70
2023/07/15 01:56:05;;;;;;;3.90;2.13;;;;;;;17.52;41.99;100470.56;4989591;28;20033;-69
2023/07/15 01:58:30;;;;;;;3.65;2.28;;;;;;;17.34;42.37;100467.47;4960458;28;20033;-69
2023/07/15 02:00:56;;;;;;;3.97;1.60;;;;;;;17.32;42.47;100455.34;4984240;28;20232;-69
2023/07/15 02:03:24;;;;;;;4.07;2.10;;;;;;;16.94;43.27;100459.88;4968590;28;20037;-70
2023/07/15 02:05:51;;;;;;;5.15;2.50;;;;;;;17.10;42.78;100453.47;4983632;28;20362;-69
2023/07/15 02:08:16;;;;;;;4.93;2.17;;;;;;;17.29;42.56;100455.56;4986375;28;20100;-69
2023/07/15 02:10:42;;;;;;;2.67;1.95;;;;;;;17.20;42.75;100459.72;4985941;28;20041;-70
2023/07/15 02:13:09;;;;;;;4.00;2.17;;;;;;;17.00;42.78;100459.44;4981206;28;20044;-69
2023/07/15 02:15:37;;;;;;;4.43;1.50;;;;;;;17.21;42.36;100451.69;4922870;28;20291;-70
2023/07/15 02:18:02;;;;;;;3.22;1.67;;;;;;;17.30;42.27;100444.88;4989853;28;20579;-70
2023/07/15 02:20:30;;;;;;;4.40;2.28;;;;;;;17.30;42.07;100438.75;4998391;28;20224;-70
2023/07/15 02:22:58;;;;;;;5.78;1.77;;;;;;;17.45;41.81;100442.88;4999174;28;20026;-70
2023/07/15 02:25:23;;;;;;;5.18;2.10;;;;;;;17.41;41.93;100438.78;4981846;28;20057;-70
2023/07/15 02:27:52;;;;;;;2.65;1.73;;;;;;;17.20;42.25;100436.81;4969421;28;20212;-70
2023/07/15 02:30:19;;;;;;;4.22;2.17;;;;;;;17.36;42.07;100433.03;4981369;28;20097;-70
2023/07/15 02:32:45;;;;;;;4.47;1.83;;;;;;;17.26;41.96;100438.13;4987990;28;20033;-71
2023/07/15 02:35:13;;;;;;;6.38;2.25;;;;;;;17.44;41.57;100435.91;4979368;28;20577;-71
2023/07/15 02:37:40;;;;;;;3.28;1.83;;;;;;;17.55;41.50;100422.75;4980491;28;20440;-70
2023/07/15 02:40:08;;;;;;;11.77;2.30;;;;;;;17.48;41.55;100426.81;4988474;28;20121;-71
2023/07/15 02:42:34;;;;;;;5.90;1.48;;;;;;;17.52;41.60;100422.16;4977067;28;20433;-70
2023/07/15 02:45:07;;;;;;;3.08;1.42;;;;;;;17.53;41.50;100413.25;4986166;28;20061;-66
2023/07/15 02:47:34;;;;;;;8.10;2.28;;;;;;;17.52;41.15;100407.13;4985333;28;20042;-64
2023/07/15 02:50:04;;;;;;;6.57;1.20;;;;;;;17.52;41.09;100412.44;4987375;28;20034;-66
2023/07/15 02:52:41;;;;;;;5.25;1.55;;;;;;;17.60;41.04;100404.75;4981759;28;20112;-66
2023/07/15 02:55:09;;;;;;;4.40;1.67;;;;;;;17.65;40.92;100402.59;4985049;28;20499;-66
2023/07/15 02:57:37;;;;;;;6.90;2.05;;;;;;;17.65;40.93;100404.41;4998405;28;20042;-70
2023/07/15 03:00:11;;;;;;;2.95;1.55;;;;;;;17.63;40.81;100404.50;4972366;28;20107;-69
2023/07/15 03:02:38;;;;;;;5.03;1.88;;;;;;;17.74;40.18;100397.53;4983919;28;20117;-69
2023/07/15 03:05:05;;;;;;;5.30;1.48;;;;;;;17.68;40.59;100395.38;4984508;28;20041;-69
2023/07/15 03:07:31;;;;;;;2.17;1.73;;;;;;;17.62;40.56;100394.88;4983735;28;20041;-69
2023/07/15 03:09:56;;;;;;;3.38;1.73;;;;;;;17.75;40.12;100389.50;4998985;28;20030;-70
2023/07/15 03:12:23;;;;;;;5.38;1.67;;;;;;;17.64;40.28;100395.59;4978052;28;20049;-70
2023/07/15 03:14:48;;;;;;;2.92;1.13;;;;;;;17.71;40.27;100385.41;4986277;28;20041;-69
2023/07/15 03:17:17;;;;;;;1.90;1.00;;;;;;;17.85;39.69;100379.88;4983598;28;20033;-69
2023/07/15 03:19:45;;;;;;;3.15;1.27;;;;;;;17.86;39.81;100386.00;4979038;28;20902;-70
2023/07/15 03:22:11;;;;;;;2.80;1.30;;;;;;;17.68;40.09;100385.66;4988034;28;20099;-68
2023/07/15 03:24:39;;;;;;;3.55;1.25;;;;;;;17.80;39.83;100389.13;4977775;28;20327;-70
2023/07/15 03:27:06;;;;;;;4.30;1.25;;;;;;;17.77;40.12;100392.84;4988866;28;20030;-70
2023/07/15 03:29:33;;;;;;;3.22;1.65;;;;;;;17.71;40.67;100389.84;4982593;28;20042;-70
2023/07/15 03:31:59;;;;;;;2.67;1.10;;;;;;;17.60;40.49;100402.13;4992061;28;20281;-70
2023/07/15 03:34:25;;;;;;;2.95;1.10;;;;;;;17.48;40.49;100392.47;4975628;28;20167;-70
2023/07/15 03:36:50;;;;;;;5.82;1.02;;;;;;;17.65;40.48;100391.19;4993926;28;20223;-69
2023/07/15 03:39:15;;;;;;;2.17;1.20;;;;;;;17.59;40.56;100391.66;4970764;28;20655;-70
2023/07/15 03:41:44;;;;;;;3.25;1.33;;;;;;;17.64;40.79;100387.69;4987096;28;20120;-69
2023/07/15 03:44:09;;;;;;;3.60;1.55;;;;;;;17.55;40.87;100384.91;4987708;28;20073;-69
2023/07/15 03:46:37;;;;;;;3.85;1.55;;;;;;;17.56;40.56;100376.88;4986365;28;20062;-70
2023/07/15 03:49:03;;;;;;;4.50;1.45;;;;;;;17.41;40.26;100372.75;4990448;28;20068;-68
2023/07/15 03:51:28;;;;;;;3.60;1.25;;;;;;;17.53;40.02;100376.28;4987475;28;20065;-68
2023/07/15 03:53:56;;;;;;;2.47;1.02;;;;;;;17.47;40.25;100374.06;4969077;28;20255;-68
2023/07/15 03:56:24;;;;;;;2.53;1.02;;;;;;;17.47;39.91;100369.66;4987907;28;20072;-68
2023/07/15 03:58:49;;;;;;;4.13;0.85;;;;;;;17.42;40.33;100359.41;4987767;28;20047;-68
2023/07/15 04:01:15;;;;;;;2.45;0.82;;;;;;;17.54;40.03;100373.53;4984804;28;20083;-67
2023/07/15 04:03:42;;;;;;;3.70;1.02;;;;;;;17.57;39.83;100367.97;4986366;28;20041;-68
2023/07/15 04:06:10;;;;;;;10.32;1.20;;;;;;;17.33;40.06;100372.50;4990163;28;20062;-69
2023/07/15 04:08:36;;;;;;;2.28;0.80;;;;;;;17.55;39.68;100369.91;4986198;28;20119;-68
2023/07/15 04:11:01;;;;;;;5.10;1.25;;;;;;;17.52;40.22;100382.53;4990158;28;20326;-67
2023/07/15 04:13:27;;;;;;;5.35;1.10;;;;;;;17.27;40.08;100373.81;5003299;28;20495;-69
2023/07/15 04:15:57;;;;;;;2.08;1.15;;;;;;;17.50;39.97;100377.34;4988619;28;20112;-68
2023/07/15 04:18:23;;;;;;;3.00;1.38;;;;;;;17.53;39.84;100371.81;4986168;28;20044;-68
2023/07/15 04:20:48;;;;;;;1.58;0.90;;;;;;;17.59;39.69;100381.91;4986292;28;21020;-68
2023/07/15 04:23:13;;;;;;;7.75;1.48;;;;;;;17.76;39.19;100372.69;4991747;28;20033;-68
2023/07/15 04:25:39;;;;;;;10.23;1.50;;;;;;;17.82;39.40;100374.00;4981935;28;20734;-66
2023/07/15 04:28:05;;;;;;;3.80;0.77;;;;;;;17.69;38.84;100375.91;4989537;28;20022;-67
2023/07/15 04:30:30;;;;;;;4.40;1.17;;;;;;;17.80;39.11;100373.28;4983521;28;20404;-67
2023/07/15 04:32:58;;;;;;;5.45;1.13;;;;;;;17.93;38.71;100371.34;4985879;28;20123;-70
2023/07/15 04:35:24;;;;;;;3.30;1.23;;;;;;;17.99;38.92;100373.50;4985997;28;20089;-69
2023/07/15 04:37:50;;;;;;;2.47;1.17;;;;;;;18.11;38.23;100376.13;4985515;28;20129;-68
2023/07/15 04:40:18;;;;;;;2.15;0.90;;;;;;;18.00;38.96;100369.88;4988105;28;20579;-70
2023/07/15 04:42:46;;;;;;;5.03;1.10;;;;;;;18.14;38.43;100365.28;4987537;28;20525;-68
2023/07/15 04:45:12;;;;;;;3.35;1.30;;;;;;;18.05;38.75;100370.38;4973969;28;20108;-71
2023/07/15 04:47:37;;;;;;;3.05;1.02;;;;;;;18.30;38.55;100376.38;4967199;28;20029;-72
2023/07/15 04:50:05;;;;;;;2.45;0.70;;;;;;;18.13;38.53;100376.84;4987622;28;20480;-71
2023/07/15 04:52:33;;;;;;;1.02;0.77;;;;;;;18.36;38.59;100370.56;4986474;28;20320;-69
2023/07/15 04:55:02;;;;;;;3.22;0.88;;;;;;;18.36;38.20;100373.22;4984369;28;20042;-73
2023/07/15 04:57:28;;;;;;;4.97;0.68;;;;;;;18.55;38.32;100374.38;4988282;28;20045;-71
2023/07/15 04:59:53;;;;;;;1.98;0.70;;;;;;;18.12;38.40;100361.94;4975922;28;20127;-71
2023/07/15 05:02:19;;;;;;;3.85;1.05;;;;;;;18.57;37.73;100372.44;4986973;28;20265;-74
2023/07/15 05:04:47;;;;;;;2.97;0.85;;;;;;;18.93;37.52;100373.06;4968186;28;20042;-73
2023/07/15 05:07:15;;;;;;;2.63;0.90;;;;;;;20.33;34.95;100375.16;4984920;28;20037;-70
2023/07/15 05:09:46;;;;;;;2.05;1.15;;;;;;;21.92;31.89;100361.34;4983212;28;20514;-71
2023/07/15 05:12:12;;;;;;;2.30;0.70;;;;;;;22.91;30.15;100374.69;4988455;28;20268;-70
2023/07/15 05:14:37;;;;;;;3.30;0.90;;;;;;;23.54;28.98;100362.97;4979655;28;20775;-70
2023/07/15 05:17:05;;;;;;;4.18;0.98;;;;;;;24.53;27.82;100364.16;4988545;28;20047;-70
2023/07/15 05:19:33;;;;;;;4.43;1.02;;;;;;;25.04;26.59;100367.53;4984553;28;20500;-70
2023/07/15 05:22:04;;;;;;;7.63;1.55;;;;;;;25.23;26.97;100366.31;4983925;28;20061;-69
2023/07/15 05:24:32;;;;;;;2.67;0.82;;;;;;;26.27;25.46;100372.47;4985650;28;20052;-72
2023/07/15 05:26:57;;;;;;;1.40;0.57;;;;;;;24.60;27.80;100370.50;4982759;28;20393;-69
2023/07/15 05:29:24;;;;;;;2.63;0.90;;;;;;;26.17;26.07;100374.53;4987180;28;20182;-66
2023/07/15 05:31:50;;;;;;;2.45;0.75;;;;;;;26.68;24.74;100366.84;4985859;28;20406;-68
2023/07/15 05:34:16;;;;;;;1.30;0.88;;;;;;;27.21;24.25;100368.75;4975830;28;20531;-70
2023/07/15 05:36:42;;;;;;;1.45;0.63;;;;;;;26.42;25.09;100371.69;4985151;28;20044;-68
2023/07/15 05:39:08;;;;;;;2.42;0.80;;;;;;;27.30;24.29;100376.53;4976247;28;20045;-68
2023/07/15 05:41:34;;;;;;;1.13;0.60;;;;;;;27.81;23.72;100380.31;4985536;28;20041;-69
2023/07/15 05:43:59;;;;;;;3.42;1.02;;;;;;;27.76;23.72;100388.94;4985478;28;20300;-69
2023/07/15 05:46:25;;;;;;;2.67;1.27;;;;;;;27.90;23.71;100393.47;4981215;28;20026;-66
2023/07/15 05:48:50;;;;;;;3.55;0.77;;;;;;;28.68;22.93;100391.06;4980008;28;20073;-67
2023/07/15 05:51:16;;;;;;;3.63;0.60;;;;;;;29.01;22.67;100393.16;4996929;28;20034;-67
2023/07/15 05:53:43;;;;;;;5.10;1.20;;;;;;;27.80;23.59;100384.88;4984099;28;20038;-68
2023/07/15 05:56:13;;;;;;;2.70;1.35;;;;;;;28.11;22.93;100394.53;4987235;28;20220;-69
2023/07/15 05:58:39;;;;;;;2.40;1.38;;;;;;;28.91;22.66;100384.63;4981447;28;20471;-70
2023/07/15 06:01:06;;;;;;;2.47;0.82;;;;;;;28.73;22.57;100385.09;4987228;28;20072;-66
2023/07/15 06:03:32;;;;;;;4.68;0.75;;;;;;;27.31;24.29;100382.72;4984639;28;20213;-74
2023/07/15 06:06:01;;;;;;;9.32;1.13;;;;;;;24.95;27.41;100387.22;4983299;28;20392;-70
2023/07/15 06:08:27;;;;;;;2.75;0.85;;;;;;;23.48;29.44;100386.78;4984433;28;20042;-69
2023/07/15 06:10:54;;;;;;;2.20;0.73;;;;;;;22.87;30.80;100399.13;4980073;28;20076;-72
2023/07/15 06:13:22;;;;;;;2.35;0.80;;;;;;;22.26;31.94;100408.66;4984072;28;20038;-73
2023/07/15 06:15:52;;;;;;;3.95;0.70;;;;;;;25.12;28.07;100401.44;4985626;28;20040;-73
2023/07/15 06:18:20;;;;;;;5.25;1.25;;;;;;;27.97;24.95;100395.41;4966002;28;20500;-71
2023/07/15 06:20:49;;;;;;;2.05;1.02;;;;;;;29.45;22.55;100394.75;4985166;28;20163;-72
2023/07/15 06:23:15;;;;;;;2.45;1.25;;;;;;;28.30;23.06;100393.97;4984842;28;20030;-70
2023/07/15 06:25:40;;;;;;;2.42;0.88;;;;;;;26.27;25.82;100395.75;4983855;28;20041;-73
2023/07/15 06:28:08;;;;;;;1.73;0.57;;;;;;;24.91;28.22;100407.25;4983824;28;20033;-68
2023/07/15 06:30:34;;;;;;;2.00;1.17;;;;;;;26.77;26.51;100402.47;4970411;28;20175;-69
2023/07/15 06:32:59;;;;;;;1.15;0.73;;;;;;;29.08;23.32;100394.06;4985317;28;20038;-68
2023/07/15 06:35:25;;;;;;;1.73;0.70;;;;;;;30.70;21.42;100395.44;4981662;28;20137;-66
2023/07/15 06:37:51;;;;;;;4.85;1.05;;;;;;;31.85;19.87;100388.84;4964684;28;20060;-69
2023/07/15 06:40:18;;;;;;;4.18;1.05;;;;;;;31.44;20.29;100390.00;4960685;28;20069;-73
2023/07/15 06:42:48;;;;;;;3.20;0.98;;;;;;;31.57;20.38;100388.13;4985348;28;20030;-70
2023/07/15 06:45:18;;;;;;;4.32;1.02;;;;;;;32.12;19.79;100386.84;4979025;28;20527;-69
2023/07/15 06:47:44;;;;;;;2.30;0.57;;;;;;;31.80;19.77;100394.88;4977151;28;20092;-70
2023/07/15 06:50:10;;;;;;;1.50;0.93;;;;;;;32.70;19.21;100384.00;4980942;28;20128;-69
2023/07/15 06:52:36;;;;;;;4.75;1.00;;;;;;;31.97;19.84;100385.28;4980838;28;20530;-71
2023/07/15 06:55:04;;;;;;;4.07;0.90;;;;;;;29.86;21.52;100393.94;4973692;28;20045;-71
2023/07/15 06:57:33;;;;;;;2.22;0.60;;;;;;;31.17;20.44;100398.16;4983499;28;20022;-70
2023/07/15 06:59:58;;;;;;;3.20;0.82;;;;;;;31.68;19.86;100396.63;4985600;28;20038;-69
2023/07/15 07:02:24;;;;;;;2.65;1.00;;;;;;;31.28;20.50;100397.50;4990472;28;20041;-68
2023/07/15 07:04:49;;;;;;;1.20;0.75;;;;;;;30.45;21.17;100391.66;4985105;28;20050;-69
2023/07/15 07:07:14;;;;;;;1.55;1.00;;;;;;;30.69;21.58;100398.34;4985890;28;20338;-68
2023/07/15 07:09:42;;;;;;;2.90;0.80;;;;;;;30.71;21.08;100389.03;4996618;28;20140;-71
2023/07/15 07:12:11;;;;;;;1.45;0.90;;;;;;;30.54;21.50;100387.72;4988497;28;20042;-69
2023/07/15 07:14:39;;;;;;;1.77;0.90;;;;;;;31.39;20.63;100396.03;4984617;28;20382;-72
2023/07/15 07:17:04;;;;;;;6.60;1.33;;;;;;;31.18;20.76;100389.84;4981725;28;20037;-71
2023/07/15 07:19:32;;;;;;;1.77;1.02;;;;;;;31.74;20.16;100395.72;4987651;28;20112;-69
2023/07/15 07:21:58;;;;;;;1.08;0.90;;;;;;;31.41;20.43;100391.25;4987123;28;20116;-69
2023/07/15 07:24:28;;;;;;;4.32;1.05;;;;;;;32.56;19.95;100393.25;4986606;28;20201;-70
2023/07/15 07:26:57;;;;;;;2.43;1.40;;;;;;;32.68;20.20;100391.53;4985457;28;20025;-70
2023/07/15 07:29:30;;;;;;;2.15;0.98;;;;;;;33.42;18.87;100397.13;4984504;28;20505;-69
2023/07/15 07:32:01;;;;;;;1.63;1.42;;;;;;;32.98;19.73;100396.28;4987031;28;20037;-71
2023/07/15 07:34:30;;;;;;;3.15;0.80;;;;;;;33.00;19.14;100388.78;4978224;28;20052;-72
2023/07/15 07:36:55;;;;;;;2.83;0.75;;;;;;;33.53;18.54;100393.66;4982931;28;20315;-70
2023/07/15 07:39:21;;;;;;;4.22;1.13;;;;;;;33.66;19.03;100398.09;4983145;28;20131;-71
2023/07/15 07:41:47;;;;;;;2.10;0.98;;;;;;;32.25;19.90;100403.00;4987162;28;20060;-70
2023/07/15 07:44:13;;;;;;;2.78;1.02;;;;;;;32.60;19.74;100397.19;4984828;28;20606;-70
2023/07/15 07:46:38;;;;;;;2.95;1.05;;;;;;;33.03;19.92;100399.13;4983445;28;20065;-71
2023/07/15 07:49:04;;;;;;;1.38;0.52;;;;;;;33.65;19.31;100396.44;4985485;28;20125;-71
2023/07/15 07:51:29;;;;;;;1.92;1.17;;;;;;;34.70;18.80;100403.38;4984003;28;23515;-71
2023/07/15 07:53:55;;;;;;;4.47;1.13;;;;;;;35.35;18.18;100404.34;4983015;28;20045;-70
2023/07/15 07:56:21;;;;;;;4.40;0.95;;;;;;;35.21;17.52;100409.22;4985738;28;20037;-70
2023/07/15 07:58:48;;;;;;;2.15;0.77;;;;;;;33.33;19.01;100406.59;4983154;28;20307;-71
2023/07/15 08:01:14;;;;;;;3.42;0.70;;;;;;;33.58;19.42;100410.06;4987501;28;20992;-69
2023/07/15 08:03:40;;;;;;;2.72;0.90;;;;;;;34.45;18.45;100411.69;4984755;28;20129;-68
2023/07/15 08:06:06;;;;;;;1.38;0.88;;;;;;;32.17;20.79;100417.63;4983575;28;20109;-69
2023/07/15 08:08:31;;;;;;;3.72;0.93;;;;;;;32.03;20.46;100418.75;4986937;28;20033;-70
2023/07/15 08:10:57;;;;;;;1.40;0.82;;;;;;;32.39;21.05;100430.84;4982815;28;20400;-71
2023/07/15 08:13:22;;;;;;;2.22;0.70;;;;;;;32.61;20.42;100428.59;4984063;28;20026;-71
2023/07/15 08:15:48;;;;;;;2.25;0.80;;;;;;;30.71;23.27;100424.09;4987067;28;20351;-70
2023/07/15 08:18:13;;;;;;;3.65;0.80;;;;;;;30.31;23.45;100418.59;4998566;28;20029;-70
2023/07/15 08:20:42;;;;;;;1.20;0.47;;;;;;;30.44;23.75;100428.56;4964714;28;20543;-69
2023/07/15 08:23:08;;;;;;;1.63;0.50;;;;;;;30.75;23.25;100430.72;4986569;28;20029;-68
2023/07/15 08:25:36;;;;;;;3.28;0.50;;;;;;;30.72;22.35;100425.75;4981880;28;20492;-68
2023/07/15 08:28:01;;;;;;;6.03;0.80;;;;;;;30.45;23.44;100424.03;4986288;28;20038;-68
2023/07/15 08:30:27;;;;;;;1.88;0.50;;;;;;;29.28;24.48;100431.06;4987882;28;20212;-67
2023/07/15 08:32:53;;;;;;;0.98;0.47;;;;;;;29.74;24.73;100433.25;4988169;28;20057;-69
2023/07/15 08:35:18;;;;;;;0.75;0.20;;;;;;;31.42;22.48;100436.94;4986940;28;20053;-68
2023/07/15 08:37:44;;;;;;;0.98;0.55;;;;;;;33.25;21.03;100445.59;4981750;28;20117;-69
2023/07/15 08:40:11;;;;;;;1.75;0.38;;;;;;;33.05;20.60;100445.75;4981710;28;20153;-68
2023/07/15 08:42:36;;;;;;;2.70;0.60;;;;;;;34.17;20.38;100442.13;4982427;28;20029;-68
2023/07/15 08:45:02;;;;;;;3.13;0.30;;;;;;;31.71;22.80;100439.41;4984484;28;20041;-69
2023/07/15 08:47:29;;;;;;;2.63;0.40;;;;;;;31.75;22.58;100435.22;4984128;28;20029;-68
2023/07/15 08:49:59;;;;;;;2.47;0.30;;;;;;;32.78;21.75;100429.72;4983146;28;20034;-68
2023/07/15 08:52:29;;;;;;;3.37;0.47;;;;;;;32.50;21.86;100445.53;5001816;28;20786;-69
2023/07/15 08:54:55;;;;;;;1.30;0.65;;;;;;;33.44;21.24;100438.34;4982169;28;20054;-69
2023/07/15 08:57:23;;;;;;;2.60;0.63;;;;;;;32.55;22.32;100451.13;4981118;28;20057;-68
2023/07/15 08:59:50;;;;;;;3.20;0.35;;;;;;;32.97;21.43;100443.34;4983253;28;20500;-68
2023/07/15 09:02:16;;;;;;;1.00;0.40;;;;;;;31.41;22.70;100451.47;4983822;28;20045;-69
2023/07/15 09:04:41;;;;;;;1.15;0.20;;;;;;;32.19;23.08;100449.84;4999832;28;20057;-69
2023/07/15 09:07:08;;;;;;;3.15;1.20;;;;;;;32.66;22.42;100453.13;4984238;28;20069;-68
2023/07/15 09:09:35;;;;;;;1.40;0.45;;;;;;;32.85;21.77;100444.03;4978052;28;20058;-68
2023/07/15 09:12:06;;;;;;;0.82;0.30;;;;;;;33.17;22.79;100452.13;4985176;28;20041;-69
2023/07/15 09:14:31;;;;;;;;;;;;;;;34.02;20.84;100450.63;4981900;28;20049;-70
2023/07/15 09:16:59;;;;;;;3.28;0.60;;;;;;;34.17;21.47;100447.53;4982972;28;20565;-68
2023/07/15 09:19:27;;;;;;;1.27;0.40;;;;;;;33.30;22.04;100443.06;4980527;28;20149;-69
2023/07/15 09:22:07;;;;;;;0.50;0.40;;;;;;;32.05;23.51;100440.94;4982470;28;20044;-69
2023/07/15 09:24:36;;;;;;;2.72;0.40;;;;;;;31.87;23.19;100438.91;4982331;28;20042;-68
2023/07/15 09:27:02;;;;;;;4.43;0.70;;;;;;;30.32;24.98;100447.19;4977589;28;20234;-69
2023/07/15 09:29:30;;;;;;;1.88;0.40;;;;;;;29.61;25.88;100439.41;4975558;28;20132;-67
2023/07/15 09:31:56;;;;;;;3.08;0.43;;;;;;;31.47;24.82;100443.56;4976663;28;20034;-67
2023/07/15 09:34:24;;;;;;;0.73;0.30;;;;;;;31.47;23.66;100449.81;4971225;28;20111;-69
2023/07/15 09:36:52;;;;;;;4.60;0.50;;;;;;;31.78;23.86;100451.00;4974626;28;20030;-68
2023/07/15 09:39:22;;;;;;;1.83;0.30;;;;;;;31.13;24.45;100445.50;4970131;28;20610;-70
2023/07/15 09:42:03;;;;;;;1.77;0.45;;;;;;;29.41;26.67;100466.16;4974291;28;20076;-68
2023/07/15 09:44:40;;;;;;;1.02;0.40;;;;;;;29.71;25.92;100460.59;4975261;28;20238;-69
2023/07/15 09:47:07;;;;;;;3.05;0.30;;;;;;;29.30;27.07;100464.00;4978273;28;20049;-69
2023/07/15 09:49:33;;;;;;;1.42;0.40;;;;;;;29.11;27.43;100469.03;4972371;28;20404;-69
2023/07/15 09:52:03;;;;;;;1.15;0.50;;;;;;;27.97;28.80;100462.56;4976656;28;20034;-69
2023/07/15 09:54:32;;;;;;;1.15;0.60;;;;;;;27.66;29.34;100466.25;4995970;28;20151;-69
2023/07/15 09:57:09;;;;;;;1.42;0.50;;;;;;;26.88;30.00;100473.59;4976596;28;20032;-68
2023/07/15 09:59:46;;;;;;;1.15;0.47;;;;;;;27.15;29.63;100464.19;4964160;28;20492;-69
2023/07/15 10:02:17;;;;;;;1.58;0.38;;;;;;;28.30;28.78;100469.19;4980168;28;20277;-68
2023/07/15 10:04:48;;;;;;;1.88;0.38;;;;;;;28.23;29.42;100476.31;4976593;28;20057;-69
2023/07/15 10:07:15;;;;;;;1.85;0.40;;;;;;;28.69;28.32;100473.38;4979796;28;20103;-69
2023/07/15 10:09:40;;;;;;;1.90;0.95;;;;;;;28.38;27.95;100478.16;4977406;28;20053;-68
2023/07/15 10:12:07;;;;;;;1.58;0.60;;;;;;;27.99;28.36;100465.84;4985508;28;20033;-69
2023/07/15 10:14:34;;;;;;;4.25;0.40;;;;;;;27.68;29.00;100477.66;4990985;28;20080;-68
2023/07/15 10:17:14;;;;;;;2.42;1.10;;;;;;;28.63;27.87;100476.00;4998367;28;20029;-68
2023/07/15 10:19:42;;;;;;;1.52;0.47;;;;;;;27.66;27.87;100483.19;4981025;28;20622;-67
2023/07/15 10:22:10;;;;;;;5.57;0.43;;;;;;;28.78;27.64;100486.69;4981068;28;20030;-68
2023/07/15 10:24:35;;;;;;;2.65;0.50;;;;;;;28.59;27.57;100494.34;4977510;28;20176;-67
2023/07/15 10:27:05;;;;;;;3.75;0.35;;;;;;;27.67;28.37;100498.25;4979999;28;20067;-68
2023/07/15 10:29:30;;;;;;;1.55;0.73;;;;;;;29.56;26.52;100496.50;4975625;28;20073;-67
2023/07/15 10:32:12;;;;;;;6.00;0.63;;;;;;;28.39;27.97;100495.94;4984959;28;20056;-68
2023/07/15 10:34:52;;;;;;;2.58;0.50;;;;;;;27.70;28.41;100505.16;4974006;28;20550;-69
2023/07/15 10:37:19;;;;;;;7.23;0.37;;;;;;;27.82;28.22;100489.41;4989225;28;20025;-68
2023/07/15 10:39:46;;;;;;;2.78;0.50;;;;;;;28.95;26.81;100488.13;4976558;28;20614;-68
2023/07/15 10:42:16;;;;;;;2.10;0.50;;;;;;;29.18;26.91;100489.78;4977060;28;20040;-67
2023/07/15 10:44:44;;;;;;;4.03;0.60;;;;;;;27.97;27.67;100494.78;4974460;28;20060;-68
2023/07/15 10:47:11;;;;;;;2.78;0.85;;;;;;;27.97;28.47;100495.59;4975784;28;21035;-68
2023/07/15 10:49:37;;;;;;;2.10;0.50;;;;;;;28.59;27.32;100499.72;4969604;28;20050;-68
2023/07/15 10:52:04;;;;;;;2.72;0.45;;;;;;;29.43;25.39;100495.56;4977660;28;20037;-68
2023/07/15 10:54:32;;;;;;;5.13;0.50;;;;;;;28.89;26.91;100510.41;4959265;28;20046;-68
2023/07/15 10:57:08;;;;;;;4.18;0.60;;;;;;;28.52;26.43;100498.78;4975924;28;20062;-68
2023/07/15 10:59:37;;;;;;;1.73;0.95;;;;;;;29.44;26.58;100495.38;4976578;28;21286;-68
2023/07/15 11:02:03;;;;;;;4.85;1.35;;;;;;;30.34;26.03;100496.34;4976807;28;20037;-67
2023/07/15 11:04:31;;;;;;;3.53;0.32;;;;;;;30.16;24.99;100496.09;4972016;28;20072;-68
2023/07/15 11:07:08;;;;;;;6.82;0.63;;;;;;;29.45;27.08;100494.34;4978853;28;20169;-67
2023/07/15 11:09:41;;;;;;;1.75;0.63;;;;;;;28.82;27.24;100507.63;4951777;28;21212;-68
2023/07/15 11:12:08;;;;;;;1.17;0.57;;;;;;;29.82;26.12;100503.13;4982676;28;20041;-68
2023/07/15 11:14:34;;;;;;;1.70;0.75;;;;;;;30.48;25.06;100494.53;4969700;28;20052;-68
2023/07/15 11:17:01;;;;;;;1.98;0.63;;;;;;;29.56;26.92;100493.81;4985543;28;20320;-68
2023/07/15 11:19:28;;;;;;;1.30;0.70;;;;;;;29.54;25.76;100490.47;4979756;28;20071;-68
2023/07/15 11:21:56;;;;;;;1.42;0.50;;;;;;;29.48;27.14;100502.03;4982558;28;20040;-69
2023/07/15 11:24:26;;;;;;;1.48;0.80;;;;;;;29.31;27.02;100497.97;4984293;28;20215;-69
2023/07/15 11:26:52;;;;;;;2.03;0.63;;;;;;;29.69;27.03;100493.09;4985832;28;20488;-69